Papere Vagabonde
Aviosuperficie Caposile LIKI



Pista 04



Pista 22

Le immagini vengono aggiornate ogni minuto
Cliccare sull'immagine per l'ingrandimento.

METAR LIPZ

2017/10/22 22:20 LIPZ
222220Z 27008KT 250V310 9999 -RA SCT030 BKN060 10/07 Q1011 NOSIG

Mappa Fronti